Time;durP1;ratioP1;P1;durP2;ratioP2;P2;SDS_P1;SDS_P2;PMS_P1;PMS_P2;Temp;Humidity;BMP_temperature;BMP_pressure;BME280_temperature;BME280_humidity;BME280_pressure;Samples;Min_cycle;Max_cycle;Signal;HPM_P1;HPM_P2
2022/07/21 00:01:55;;;;;;;14.50;11.40;;;;;;;20.27;84.81;99211.14;105183;1271;61160;-70
2022/07/21 00:04:21;;;;;;;13.00;11.00;;;;;;;20.25;85.05;99210.70;105170;1271;61377;-70
2022/07/21 00:06:48;;;;;;;12.00;10.70;;;;;;;20.21;85.02;99211.06;105174;1271;61381;-70
2022/07/21 00:09:15;;;;;;;13.80;10.90;;;;;;;20.18;85.50;99210.67;105164;1271;61504;-70
2022/07/21 00:11:41;;;;;;;14.70;10.40;;;;;;;20.13;85.70;99210.47;105090;1271;61483;-69
2022/07/21 00:14:09;;;;;;;13.40;10.70;;;;;;;20.07;85.74;99212.19;105209;1271;61185;-68
2022/07/21 00:16:37;;;;;;;12.60;10.80;;;;;;;20.01;86.05;99211.39;105175;1271;74336;-69
2022/07/21 00:19:03;;;;;;;13.80;11.00;;;;;;;19.93;86.31;99205.05;105183;1271;69306;-71
2022/07/21 00:21:29;;;;;;;12.60;11.10;;;;;;;19.85;86.60;99205.39;105180;1271;61352;-70
2022/07/21 00:23:55;;;;;;;13.20;11.60;;;;;;;19.76;86.86;99207.04;105163;1271;61381;-71
2022/07/21 00:26:22;;;;;;;13.80;11.00;;;;;;;19.69;87.37;99207.73;105191;1271;61373;-69
2022/07/21 00:28:49;;;;;;;13.50;11.30;;;;;;;19.63;87.61;99214.14;105211;1271;61364;-70
2022/07/21 00:31:15;;;;;;;14.20;11.60;;;;;;;19.55;88.03;99218.45;105260;1271;61410;-70
2022/07/21 00:33:42;;;;;;;15.80;11.50;;;;;;;19.49;88.66;99216.05;105201;1271;61393;-70
2022/07/21 00:36:08;;;;;;;13.10;11.30;;;;;;;19.42;89.15;99216.34;105177;1271;62071;-70
2022/07/21 00:38:34;;;;;;;12.30;11.10;;;;;;;19.37;89.84;99217.83;105215;1271;61454;-70
2022/07/21 00:41:00;;;;;;;15.50;13.10;;;;;;;19.32;90.36;99220.86;105161;1271;61262;-68
2022/07/21 00:43:27;;;;;;;14.30;12.40;;;;;;;19.27;90.79;99219.33;104911;1270;61329;-70
2022/07/21 00:45:54;;;;;;;39.40;36.50;;;;;;;19.21;91.38;99221.17;105342;1271;61368;-70
2022/07/21 00:48:21;;;;;;;23.50;21.30;;;;;;;19.17;91.81;99215.12;105077;1271;61356;-69
2022/07/21 00:50:48;;;;;;;20.50;18.40;;;;;;;19.13;92.44;99211.33;105239;1271;61394;-69
2022/07/21 00:53:14;;;;;;;15.70;13.30;;;;;;;19.10;92.97;99214.94;105225;1271;61307;-69
2022/07/21 00:55:46;;;;;;;13.40;12.00;;;;;;;19.07;93.59;99218.90;105221;1271;61378;-70
2022/07/21 00:58:12;;;;;;;16.40;12.50;;;;;;;19.09;94.80;99217.13;105176;1271;72403;-70
2022/07/21 01:00:39;;;;;;;17.50;12.20;;;;;;;19.12;95.38;99219.27;105190;1271;61326;-70
2022/07/21 01:03:05;;;;;;;12.90;11.50;;;;;;;19.14;95.54;99219.20;105217;1271;61287;-70
2022/07/21 01:05:31;;;;;;;13.90;11.40;;;;;;;19.16;95.89;99221.30;105407;1271;61342;-71
2022/07/21 01:08:02;;;;;;;13.60;12.20;;;;;;;19.17;95.78;99215.14;105179;1271;61406;-69
2022/07/21 01:10:29;;;;;;;13.70;12.30;;;;;;;19.15;96.24;99218.20;105139;1271;73486;-69
2022/07/21 01:12:56;;;;;;;15.90;13.10;;;;;;;19.13;96.31;99219.88;105243;1271;61287;-70
2022/07/21 01:15:23;;;;;;;14.40;12.90;;;;;;;19.10;96.60;99218.13;105153;1271;61347;-70
2022/07/21 01:17:49;;;;;;;18.20;13.00;;;;;;;19.05;96.71;99220.38;104972;1274;61397;-70
2022/07/21 01:20:18;;;;;;;15.20;12.60;;;;;;;19.02;97.46;99218.60;105312;1271;70292;-70
2022/07/21 01:22:47;;;;;;;14.30;12.40;;;;;;;18.97;97.26;99216.52;105348;1271;74657;-70
2022/07/21 01:25:14;;;;;;;14.50;12.90;;;;;;;18.91;97.79;99216.05;105224;1271;61719;-71
2022/07/21 01:27:40;;;;;;;13.90;12.50;;;;;;;18.84;97.87;99212.01;105256;1271;61310;-70
2022/07/21 01:30:08;;;;;;;18.60;13.10;;;;;;;18.77;98.19;99207.87;105013;1271;61275;-69
2022/07/21 01:32:36;;;;;;;17.20;12.90;;;;;;;18.71;98.63;99211.81;105301;1271;69302;-69
2022/07/21 01:35:06;;;;;;;16.60;12.80;;;;;;;18.68;99.09;99215.52;105152;1271;73957;-69
2022/07/21 01:37:36;;;;;;;13.60;12.10;;;;;;;18.63;99.71;99210.26;105243;1271;61381;-69
2022/07/21 01:42:48;;;;;;;13.50;12.10;;;;;;;18.58;100.00;99211.11;104921;1271;75443;-69
2022/07/21 01:45:14;;;;;;;15.40;13.30;;;;;;;18.59;100.00;99209.42;105172;1271;61365;-70
2022/07/21 01:47:41;;;;;;;18.00;11.50;;;;;;;18.60;100.00;99207.52;105185;1271;61400;-69
2022/07/21 01:50:07;;;;;;;15.40;11.60;;;;;;;18.63;100.00;99213.30;104916;1271;61499;-69
2022/07/21 01:52:33;;;;;;;12.50;10.80;;;;;;;18.68;100.00;99212.52;105211;1271;61378;-70
2022/07/21 01:55:00;;;;;;;15.40;12.40;;;;;;;18.70;100.00;99215.86;105199;1270;61252;-70
2022/07/21 01:57:26;;;;;;;14.30;12.50;;;;;;;18.73;100.00;99211.46;105049;1271;61476;-71
2022/07/21 01:59:52;;;;;;;13.50;11.90;;;;;;;18.75;100.00;99213.08;105174;1271;61368;-70
2022/07/21 02:02:20;;;;;;;15.70;12.10;;;;;;;18.77;100.00;99211.48;105158;1271;61336;-71
2022/07/21 02:04:50;;;;;;;14.20;11.20;;;;;;;18.77;100.00;99206.45;105215;1271;61320;-69
2022/07/21 02:07:16;;;;;;;13.50;11.70;;;;;;;18.76;100.00;99199.15;105177;1271;75222;-69
2022/07/21 02:09:42;;;;;;;12.60;11.30;;;;;;;18.74;100.00;99199.83;105223;1271;61220;-70
2022/07/21 02:12:09;;;;;;;14.20;11.80;;;;;;;18.73;100.00;99195.27;105091;1271;61291;-70
2022/07/21 02:14:35;;;;;;;13.30;11.90;;;;;;;18.71;100.00;99194.98;105245;1271;61383;-70
2022/07/21 02:17:02;;;;;;;13.00;11.60;;;;;;;18.68;100.00;99191.23;105177;1271;61275;-70
2022/07/21 02:19:27;;;;;;;14.30;12.40;;;;;;;18.64;100.00;99190.88;105231;1271;61825;-70
2022/07/21 02:21:54;;;;;;;13.30;11.70;;;;;;;18.58;100.00;99189.02;105220;1271;61280;-69
2022/07/21 02:24:20;;;;;;;15.30;11.70;;;;;;;18.51;100.00;99190.37;105017;1271;61378;-70
2022/07/21 02:26:46;;;;;;;15.30;11.50;;;;;;;18.46;100.00;99188.70;105186;1271;61371;-69
2022/07/21 02:29:12;;;;;;;15.10;11.40;;;;;;;18.42;100.00;99190.89;105223;1271;61359;-70
2022/07/21 02:31:38;;;;;;;14.10;11.90;;;;;;;18.37;100.00;99187.04;105197;1271;61269;-69
2022/07/21 02:34:06;;;;;;;15.70;11.10;;;;;;;18.32;100.00;99187.69;105249;1271;61406;-70
2022/07/21 02:36:33;;;;;;;14.10;11.50;;;;;;;18.28;100.00;99191.36;105188;1271;61245;-70
2022/07/21 02:38:59;;;;;;;12.10;10.80;;;;;;;18.23;100.00;99187.63;105202;1270;61983;-70
2022/07/21 02:41:25;;;;;;;15.90;11.50;;;;;;;18.19;100.00;99182.69;105219;1271;61328;-70
2022/07/21 02:43:51;;;;;;;11.90;10.40;;;;;;;18.16;100.00;99182.25;105154;1271;61285;-70
2022/07/21 02:46:17;;;;;;;12.20;11.00;;;;;;;18.15;100.00;99178.23;105082;1271;61378;-71
2022/07/21 02:48:43;;;;;;;16.80;11.90;;;;;;;18.16;100.00;99172.71;105228;1270;61532;-70
2022/07/21 02:51:09;;;;;;;13.70;11.80;;;;;;;18.17;100.00;99170.62;105172;1271;61300;-71
2022/07/21 02:53:35;;;;;;;14.00;11.50;;;;;;;18.19;100.00;99169.16;105224;1271;61218;-70
2022/07/21 02:56:02;;;;;;;14.80;11.70;;;;;;;18.22;100.00;99173.92;105037;1271;61295;-70
2022/07/21 02:58:30;;;;;;;12.70;11.10;;;;;;;18.24;100.00;99174.63;105041;1271;61409;-71
2022/07/21 03:01:05;;;;;;;15.50;11.50;;;;;;;18.25;100.00;99176.19;105165;1271;61416;-70
2022/07/21 03:03:34;;;;;;;15.50;11.20;;;;;;;18.25;100.00;99175.31;105026;1271;61362;-70
2022/07/21 03:06:01;;;;;;;12.60;10.40;;;;;;;18.24;100.00;99179.81;105204;1271;75268;-70
2022/07/21 03:08:28;;;;;;;13.70;11.50;;;;;;;18.24;100.00;99175.90;105187;1271;70165;-71
2022/07/21 03:10:55;;;;;;;12.70;10.90;;;;;;;18.24;100.00;99178.73;105213;1270;74166;-71
2022/07/21 03:13:21;;;;;;;12.70;10.60;;;;;;;18.25;100.00;99174.38;104969;1271;61313;-71
2022/07/21 03:15:48;;;;;;;11.50;10.30;;;;;;;18.26;100.00;99173.73;105215;1271;61235;-70
2022/07/21 03:18:14;;;;;;;11.80;10.40;;;;;;;18.27;100.00;99177.61;105184;1271;61361;-71
2022/07/21 03:20:42;;;;;;;14.10;10.90;;;;;;;18.30;100.00;99174.65;105143;1271;61386;-71
2022/07/21 03:23:09;;;;;;;12.40;10.30;;;;;;;18.32;100.00;99178.39;105235;1271;74372;-71
2022/07/21 03:25:36;;;;;;;12.00;10.20;;;;;;;18.35;100.00;99182.42;105312;1271;61298;-71
2022/07/21 03:28:02;;;;;;;11.10;9.70;;;;;;;18.38;100.00;99180.81;105186;1271;61326;-69
2022/07/21 03:30:29;;;;;;;12.40;10.30;;;;;;;18.42;100.00;99177.70;105196;1271;76161;-70
2022/07/21 03:32:55;;;;;;;15.00;11.00;;;;;;;18.49;100.00;99175.70;105211;1271;70223;-71
2022/07/21 03:35:21;;;;;;;11.40;9.60;;;;;;;18.70;100.00;99174.89;105202;1271;61389;-72
2022/07/21 03:37:53;;;;;;;11.50;10.20;;;;;;;19.23;100.00;99177.55;105153;1271;61418;-72
2022/07/21 03:40:23;;;;;;;11.60;10.10;;;;;;;19.82;99.80;99176.63;105239;1271;61265;-70
2022/07/21 03:42:53;;;;;;;;;;;;;;;20.35;98.18;99174.85;104972;1271;75315;-72
2022/07/21 03:45:19;;;;;;;;;;;;;;;20.82;96.06;99172.14;105263;1271;70759;-70
2022/07/21 03:47:45;;;;;;;9.80;8.90;;;;;;;21.22;94.42;99167.91;105185;1271;61399;-71
2022/07/21 03:50:12;;;;;;;11.40;10.30;;;;;;;21.64;92.57;99168.88;105150;1271;61303;-71
2022/07/21 03:52:38;;;;;;;10.70;9.60;;;;;;;22.11;90.72;99170.10;104936;1274;61426;-72
2022/07/21 03:55:07;;;;;;;12.20;10.20;;;;;;;22.55;88.33;99167.76;105191;1271;61374;-71
2022/07/21 03:57:38;;;;;;;10.00;9.00;;;;;;;22.97;86.07;99164.42;105191;1271;69143;-70
2022/07/21 04:00:09;;;;;;;9.70;8.80;;;;;;;23.39;83.51;99164.42;105168;1270;74902;-71
2022/07/21 04:02:35;;;;;;;12.30;8.70;;;;;;;23.72;81.53;99162.38;105208;1271;61208;-70
2022/07/21 04:05:02;;;;;;;10.80;9.60;;;;;;;24.07;79.26;99158.62;105195;1271;61285;-70
2022/07/21 04:07:27;;;;;;;10.70;9.10;;;;;;;24.46;78.06;99156.86;105163;1271;61360;-70
2022/07/21 04:09:54;;;;;;;12.40;9.10;;;;;;;24.86;75.70;99158.26;105175;1271;61443;-70
2022/07/21 04:12:25;;;;;;;9.90;8.90;;;;;;;25.14;73.42;99157.16;104900;1274;61466;-71
2022/07/21 04:14:51;;;;;;;10.30;8.90;;;;;;;25.49;71.39;99164.80;105219;1271;61299;-70
2022/07/21 04:17:17;;;;;;;10.30;9.20;;;;;;;25.72;69.25;99160.06;105214;1271;61352;-70
2022/07/21 04:19:43;;;;;;;10.30;9.30;;;;;;;25.81;66.75;99164.73;105185;1271;61284;-71
2022/07/21 04:22:09;;;;;;;10.10;9.10;;;;;;;25.89;65.98;99169.44;104901;1272;61428;-70
2022/07/21 04:24:35;;;;;;;13.60;10.10;;;;;;;26.01;65.25;99172.77;105138;1271;61815;-70
2022/07/21 04:27:02;;;;;;;10.30;9.40;;;;;;;26.27;64.56;99174.98;105200;1271;61428;-70
2022/07/21 04:29:28;;;;;;;9.30;8.40;;;;;;;26.45;63.86;99175.05;104849;1271;61252;-70
2022/07/21 04:31:55;;;;;;;9.90;8.90;;;;;;;26.59;62.70;99180.36;105186;1270;61303;-71
2022/07/21 04:34:21;;;;;;;10.80;9.90;;;;;;;26.68;61.54;99180.66;105177;1271;61393;-71
2022/07/21 04:36:47;;;;;;;10.40;9.30;;;;;;;26.81;61.25;99187.08;105198;1271;61395;-70
2022/07/21 04:39:13;;;;;;;10.60;9.60;;;;;;;27.13;60.61;99183.80;105151;1271;61278;-72
2022/07/21 04:41:39;;;;;;;10.60;9.50;;;;;;;27.31;58.87;99179.21;105150;1271;61298;-70
2022/07/21 04:44:05;;;;;;;14.90;9.60;;;;;;;27.33;58.67;99180.19;105168;1270;61287;-70
2022/07/21 04:46:31;;;;;;;11.80;9.90;;;;;;;27.51;57.50;99180.15;105182;1271;73356;-71
2022/07/21 04:48:57;;;;;;;11.60;9.60;;;;;;;27.62;56.60;99179.60;105192;1271;61418;-70
2022/07/21 04:51:23;;;;;;;10.40;9.40;;;;;;;27.69;56.15;99184.04;105217;1271;61307;-71
2022/07/21 04:53:49;;;;;;;11.90;9.50;;;;;;;27.78;55.65;99190.17;105158;1271;61306;-71
2022/07/21 04:56:15;;;;;;;11.00;9.40;;;;;;;27.91;55.19;99189.88;105208;1271;61311;-69
2022/07/21 04:58:41;;;;;;;11.00;9.90;;;;;;;28.12;55.16;99191.97;105164;1271;61275;-71
2022/07/21 05:01:07;;;;;;;10.20;8.70;;;;;;;28.32;54.49;99196.81;105153;1271;61693;-71
2022/07/21 05:03:34;;;;;;;11.00;10.00;;;;;;;28.49;53.38;99196.43;105159;1271;61301;-71
2022/07/21 05:05:59;;;;;;;11.70;10.40;;;;;;;28.63;53.46;99198.47;105241;1270;61288;-71
2022/07/21 05:08:27;;;;;;;11.10;9.00;;;;;;;28.81;52.44;99192.98;105192;1271;72463;-71
2022/07/21 05:10:53;;;;;;;9.90;9.00;;;;;;;28.95;52.05;99196.18;105158;1271;61212;-70
2022/07/21 05:13:19;;;;;;;10.10;9.00;;;;;;;29.07;51.38;99196.77;105189;1271;61393;-71
2022/07/21 05:15:45;;;;;;;11.70;10.00;;;;;;;29.10;50.72;99196.11;105166;1271;61407;-71
2022/07/21 05:18:11;;;;;;;13.50;9.40;;;;;;;29.13;50.64;99198.70;105152;1271;61129;-70
2022/07/21 05:20:37;;;;;;;12.40;9.20;;;;;;;29.18;49.91;99196.45;105174;1271;61295;-70
2022/07/21 05:23:03;;;;;;;11.20;8.40;;;;;;;29.23;49.96;99190.30;105146;1271;61356;-70
2022/07/21 05:25:31;;;;;;;11.70;9.10;;;;;;;29.38;49.96;99192.50;105195;1271;61339;-70
2022/07/21 05:27:58;;;;;;;9.40;8.50;;;;;;;29.51;48.95;99191.61;105212;1271;61394;-71
2022/07/21 05:30:24;;;;;;;10.30;8.20;;;;;;;29.55;48.92;99186.68;105103;1271;61378;-70
2022/07/21 05:32:50;;;;;;;10.60;9.00;;;;;;;29.65;48.35;99184.23;105171;1271;61393;-71
2022/07/21 05:35:16;;;;;;;11.90;7.90;;;;;;;29.81;48.49;99183.78;105166;1271;61357;-71
2022/07/21 05:37:42;;;;;;;10.00;9.10;;;;;;;30.03;47.89;99186.41;105149;1271;61412;-71
2022/07/21 05:40:10;;;;;;;9.80;8.50;;;;;;;30.07;46.73;99182.77;105171;1271;61291;-70
2022/07/21 05:42:37;;;;;;;11.90;8.50;;;;;;;30.01;46.36;99188.06;104890;1271;61362;-70
2022/07/21 05:45:04;;;;;;;9.60;8.00;;;;;;;29.95;46.47;99186.48;104876;1271;61467;-71
2022/07/21 05:47:32;;;;;;;12.50;8.50;;;;;;;29.96;46.62;99183.73;105201;1271;61163;-70
2022/07/21 05:49:58;;;;;;;12.50;9.60;;;;;;;29.96;46.11;99189.88;104931;1271;61303;-70
2022/07/21 05:52:25;;;;;;;8.80;7.90;;;;;;;29.92;46.01;99189.25;105222;1271;75102;-70
2022/07/21 05:54:51;;;;;;;8.80;8.00;;;;;;;29.96;46.23;99193.19;105219;1271;69248;-71
2022/07/21 05:57:18;;;;;;;9.90;8.40;;;;;;;30.10;46.11;99195.35;105179;1271;61355;-70
2022/07/21 05:59:45;;;;;;;11.00;8.20;;;;;;;30.26;45.44;99192.11;105275;1271;61298;-70
2022/07/21 06:02:11;;;;;;;11.20;8.30;;;;;;;30.25;45.17;99195.20;105219;1271;61974;-70
2022/07/21 06:04:38;;;;;;;10.00;8.90;;;;;;;30.15;45.13;99195.95;105192;1271;61714;-70
2022/07/21 06:07:04;;;;;;;11.10;8.50;;;;;;;30.15;45.81;99204.54;105216;1271;61351;-71
2022/07/21 06:09:31;;;;;;;9.90;8.60;;;;;;;30.42;46.13;99203.67;104982;1271;61381;-70
2022/07/21 06:11:57;;;;;;;9.20;8.30;;;;;;;30.64;45.53;99197.19;105186;1270;61342;-71
2022/07/21 06:14:23;;;;;;;8.40;7.40;;;;;;;30.58;44.37;99198.39;105172;1271;61287;-71
2022/07/21 06:16:49;;;;;;;10.60;8.10;;;;;;;30.41;44.21;99205.11;105191;1271;61288;-70
2022/07/21 06:19:16;;;;;;;10.70;8.50;;;;;;;30.34;44.95;99201.21;105195;1271;61364;-69
2022/07/21 06:21:42;;;;;;;8.90;7.70;;;;;;;30.42;44.87;99204.48;105151;1271;61484;-70
2022/07/21 06:24:08;;;;;;;11.40;8.60;;;;;;;30.48;44.52;99208.52;105179;1271;61211;-71
2022/07/21 06:26:35;;;;;;;10.80;8.30;;;;;;;30.53;44.56;99210.59;105201;1270;61343;-71
2022/07/21 06:29:01;;;;;;;9.20;8.30;;;;;;;30.53;43.62;99212.48;105171;1271;61358;-70
2022/07/21 06:31:27;;;;;;;11.10;7.70;;;;;;;30.44;44.00;99214.23;105191;1271;61250;-70
2022/07/21 06:33:53;;;;;;;8.30;7.50;;;;;;;30.51;44.16;99208.33;104879;1271;61464;-70
2022/07/21 06:36:19;;;;;;;15.50;8.90;;;;;;;30.53;43.71;99213.81;105157;1271;61356;-70
2022/07/21 06:38:45;;;;;;;12.40;8.20;;;;;;;30.51;44.12;99213.41;105170;1271;61391;-70
2022/07/21 06:41:12;;;;;;;8.30;7.40;;;;;;;30.50;43.72;99218.88;105197;1271;61351;-70
2022/07/21 06:43:38;;;;;;;8.40;7.50;;;;;;;30.32;43.30;99224.25;105381;1271;61258;-70
2022/07/21 06:46:05;;;;;;;9.20;7.10;;;;;;;30.15;43.87;99223.60;105166;1271;61381;-70
2022/07/21 06:48:31;;;;;;;8.40;7.40;;;;;;;30.22;44.38;99222.30;105216;1270;61298;-70
2022/07/21 06:50:57;;;;;;;9.00;7.70;;;;;;;30.35;44.18;99220.75;105031;1270;74995;-71
2022/07/21 06:53:24;;;;;;;9.10;8.20;;;;;;;30.27;44.13;99225.50;105202;1271;61304;-71
2022/07/21 06:55:52;;;;;;;8.70;7.90;;;;;;;30.24;44.31;99229.84;105170;1271;61320;-71
2022/07/21 06:58:21;;;;;;;8.90;8.10;;;;;;;30.16;43.35;99230.66;105270;1271;61381;-71
2022/07/21 07:00:49;;;;;;;8.20;7.40;;;;;;;30.04;44.00;99229.56;105364;1271;61947;-70
2022/07/21 07:03:15;;;;;;;8.60;7.60;;;;;;;30.04;43.92;99228.05;105225;1271;76239;-70
2022/07/21 07:05:44;;;;;;;10.10;7.70;;;;;;;29.96;43.64;99225.95;105170;1271;69373;-71
2022/07/21 07:08:11;;;;;;;8.20;7.20;;;;;;;29.98;43.61;99223.48;105187;1271;73347;-71
2022/07/21 07:10:38;;;;;;;8.40;7.00;;;;;;;29.92;43.69;99226.57;105217;1271;61314;-71
2022/07/21 07:13:05;;;;;;;11.50;7.70;;;;;;;29.92;43.80;99225.73;105184;1271;61368;-72
2022/07/21 07:15:31;;;;;;;7.60;6.80;;;;;;;29.93;44.39;99223.81;105224;1270;61366;-70
2022/07/21 07:17:57;;;;;;;9.50;7.70;;;;;;;30.07;44.69;99225.58;105186;1271;61304;-71
2022/07/21 07:20:23;;;;;;;9.60;7.30;;;;;;;30.19;44.77;99228.10;104871;1271;61284;-70
2022/07/21 07:22:49;;;;;;;7.80;7.10;;;;;;;30.30;44.89;99228.75;104896;1271;61280;-71
2022/07/21 07:25:19;;;;;;;7.60;7.00;;;;;;;30.31;44.27;99232.09;105216;1271;61245;-70
2022/07/21 07:27:48;;;;;;;9.20;7.10;;;;;;;30.13;44.33;99229.53;105198;1271;75252;-70
2022/07/21 07:30:17;;;;;;;8.60;7.00;;;;;;;29.93;45.01;99224.45;105248;1271;69357;-70
2022/07/21 07:32:43;;;;;;;8.40;7.10;;;;;;;29.72;45.59;99224.60;104962;1271;74287;-71
2022/07/21 07:35:12;;;;;;;7.40;6.70;;;;;;;29.62;46.03;99224.98;105170;1271;61274;-70
2022/07/21 07:37:39;;;;;;;;;;;;;;;29.43;45.56;99231.75;105294;1271;61379;-70
2022/07/21 07:40:08;;;;;;;7.90;7.00;;;;;;;29.08;45.63;99226.91;105258;1271;75554;-71
2022/07/21 07:42:37;;;;;;;8.00;6.80;;;;;;;28.77;46.20;99229.70;105069;1271;69259;-70
2022/07/21 07:45:29;;;;;;;11.20;7.10;;;;;;;28.59;47.12;99223.45;105387;1271;72902;-70
2022/07/21 07:47:55;;;;;;;6.70;6.10;;;;;;;28.62;47.60;99222.19;105245;1271;61279;-71
2022/07/21 07:50:21;;;;;;;12.40;7.30;;;;;;;28.68;47.55;99221.02;105321;1271;61298;-70
2022/07/21 07:52:48;;;;;;;7.80;7.00;;;;;;;28.71;47.74;99220.59;105196;1271;61374;-70
2022/07/21 07:55:14;;;;;;;7.90;7.20;;;;;;;28.83;48.58;99219.35;104954;1271;61294;-70
2022/07/21 07:57:43;;;;;;;7.80;7.10;;;;;;;28.96;48.22;99220.48;105174;1271;61450;-71
2022/07/21 08:00:16;;;;;;;7.50;6.70;;;;;;;28.97;47.91;99218.75;105226;1270;61362;-71
2022/07/21 08:02:43;;;;;;;7.50;6.50;;;;;;;28.99;47.85;99219.58;105293;1271;61956;-71
2022/07/21 08:05:09;;;;;;;10.10;7.00;;;;;;;28.99;47.75;99214.77;104983;1271;61312;-70
2022/07/21 08:07:40;;;;;;;10.00;7.40;;;;;;;28.99;48.09;99214.02;105264;1271;70607;-70
2022/07/21 08:10:12;;;;;;;9.10;7.30;;;;;;;29.05;48.38;99211.67;105233;1271;74322;-70
2022/07/21 08:12:38;;;;;;;8.00;7.10;;;;;;;29.14;48.16;99209.93;105214;1271;61235;-70
2022/07/21 08:15:06;;;;;;;9.90;6.60;;;;;;;29.21;48.07;99210.74;104913;1271;61441;-70
2022/07/21 08:17:32;;;;;;;8.60;6.90;;;;;;;29.17;46.79;99204.94;105006;1271;76085;-71
2022/07/21 08:19:58;;;;;;;9.70;6.60;;;;;;;29.12;47.69;99203.77;104856;1271;61261;-70
2022/07/21 08:22:24;;;;;;;7.60;6.10;;;;;;;29.23;47.62;99207.06;105182;1271;61275;-71
2022/07/21 08:24:50;;;;;;;9.60;6.60;;;;;;;29.29;47.06;99212.05;105181;1271;61321;-70
2022/07/21 08:27:17;;;;;;;6.60;5.90;;;;;;;29.27;47.05;99209.33;105208;1271;61251;-72
2022/07/21 08:29:43;;;;;;;10.40;6.40;;;;;;;29.29;46.69;99211.04;105217;1271;61385;-70
2022/07/21 08:32:09;;;;;;;7.10;6.20;;;;;;;29.37;47.53;99209.73;105176;1271;61281;-70
2022/07/21 08:34:35;;;;;;;11.40;7.20;;;;;;;29.54;47.23;99211.80;105192;1270;61298;-71
2022/07/21 08:37:01;;;;;;;7.60;6.90;;;;;;;29.63;46.86;99210.09;105203;1271;61247;-70
2022/07/21 08:39:27;;;;;;;10.30;7.00;;;;;;;29.63;47.45;99209.93;105225;1271;61298;-70
2022/07/21 08:41:53;;;;;;;8.50;7.00;;;;;;;29.74;47.57;99212.49;105229;1270;61434;-70
2022/07/21 08:44:22;;;;;;;8.00;6.90;;;;;;;29.85;47.44;99214.41;105205;1271;73196;-70
2022/07/21 08:46:50;;;;;;;7.50;6.60;;;;;;;29.94;47.50;99216.91;105235;1271;61400;-69
2022/07/21 08:49:22;;;;;;;7.20;6.40;;;;;;;30.03;46.93;99220.40;105285;1271;62024;-70
2022/07/21 08:51:51;;;;;;;7.40;6.70;;;;;;;30.14;46.79;99214.27;105201;1271;76395;-70
2022/07/21 08:54:19;;;;;;;10.00;6.70;;;;;;;30.29;47.16;99208.99;104977;1271;68645;-71
2022/07/21 08:56:45;;;;;;;8.00;6.70;;;;;;;30.46;46.86;99207.10;105251;1271;74369;-70
2022/07/21 08:59:11;;;;;;;9.90;6.90;;;;;;;30.53;45.46;99208.23;105190;1271;61323;-70
2022/07/21 09:01:38;;;;;;;7.00;6.30;;;;;;;30.62;46.01;99210.89;105242;1271;61397;-70
2022/07/21 09:04:25;;;;;;;9.30;6.50;;;;;;;30.76;45.64;99214.48;105224;1271;61352;-70
2022/07/21 09:06:57;;;;;;;6.20;5.60;;;;;;;30.83;44.71;99217.97;105183;1271;69224;-69
2022/07/21 09:09:25;;;;;;;8.00;6.50;;;;;;;30.93;44.68;99216.41;105280;1271;73467;-71
2022/07/21 09:11:52;;;;;;;10.30;6.80;;;;;;;31.01;44.57;99212.85;105373;1271;61355;-70
2022/07/21 09:14:21;;;;;;;6.90;6.30;;;;;;;31.03;44.61;99214.73;105215;1271;62062;-71
2022/07/21 09:16:51;;;;;;;7.40;6.50;;;;;;;31.07;43.78;99217.39;105249;1270;74326;-70
2022/07/21 09:19:33;;;;;;;6.80;6.10;;;;;;;31.08;43.37;99217.97;105315;1269;70163;-70
2022/07/21 09:22:02;;;;;;;6.30;5.70;;;;;;;31.09;42.71;99215.01;105236;1271;73384;-69
2022/07/21 09:24:31;;;;;;;;;;;;;;;31.18;41.90;99213.95;105212;1271;61265;-70
2022/07/21 09:27:08;;;;;;;6.10;5.50;;;;;;;31.27;41.99;99208.70;105222;1271;61164;-69
2022/07/21 09:29:51;;;;;;;9.40;6.70;;;;;;;31.45;42.08;99205.88;105184;1271;76862;-70
2022/07/21 09:32:31;;;;;;;6.20;5.60;;;;;;;31.52;40.91;99205.73;105224;1271;68653;-70
2022/07/21 09:35:13;;;;;;;7.60;5.50;;;;;;;31.42;40.23;99205.02;105257;1271;72317;-69
2022/07/21 09:37:40;;;;;;;6.20;5.40;;;;;;;31.37;40.64;99203.16;105187;1271;61306;-70
2022/07/21 09:40:12;;;;;;;6.40;5.70;;;;;;;31.32;40.06;99204.66;105224;1269;61160;-70
2022/07/21 09:42:44;;;;;;;7.20;5.50;;;;;;;31.19;39.81;99207.75;105379;1269;76485;-70
2022/07/21 09:45:16;;;;;;;7.20;5.90;;;;;;;31.15;39.86;99212.04;101651;1271;4601026;-71
2022/07/21 09:47:45;;;;;;;7.20;5.70;;;;;;;31.17;40.14;99209.86;105427;1270;74597;-72
2022/07/21 09:50:15;;;;;;;6.80;5.90;;;;;;;31.26;40.31;99207.02;105112;1271;62132;-71
2022/07/21 09:52:45;;;;;;;6.20;5.60;;;;;;;31.31;39.17;99213.61;105295;1271;61253;-71
2022/07/21 09:55:15;;;;;;;6.50;5.90;;;;;;;31.31;38.90;99210.01;105220;1271;75172;-70
2022/07/21 09:57:41;;;;;;;7.10;6.10;;;;;;;31.33;39.27;99204.98;105282;1268;69348;-70
2022/07/21 10:00:18;;;;;;;7.00;6.30;;;;;;;31.47;39.79;99196.68;105269;1268;73159;-70
2022/07/21 10:02:45;;;;;;;7.50;6.20;;;;;;;31.62;38.97;99193.45;105236;1271;61382;-70
2022/07/21 10:05:18;;;;;;;7.10;6.20;;;;;;;31.61;38.71;99190.10;105263;1271;62094;-69
2022/07/21 10:07:48;;;;;;;15.70;6.80;;;;;;;31.61;39.18;99183.13;105219;1269;75313;-71
2022/07/21 10:10:18;;;;;;;9.90;6.50;;;;;;;31.77;39.96;99180.42;105271;1268;69238;-70
2022/07/21 10:12:45;;;;;;;8.30;6.50;;;;;;;31.84;39.05;99176.53;105371;1271;74418;-70
2022/07/21 10:15:12;;;;;;;7.60;6.20;;;;;;;31.78;38.77;99170.98;105364;1270;61272;-70
2022/07/21 10:17:39;;;;;;;8.50;6.40;;;;;;;31.84;38.45;99172.08;104951;1269;61292;-70
2022/07/21 10:20:14;;;;;;;8.40;5.90;;;;;;;31.83;36.99;99167.90;105209;1271;76315;-71
2022/07/21 10:23:27;;;;;;;7.80;5.70;;;;;;;31.75;37.05;99171.41;105226;1270;69337;-70
2022/07/21 10:25:54;;;;;;;13.10;6.50;;;;;;;31.70;37.21;99164.55;105270;1271;73258;-70
2022/07/21 10:28:23;;;;;;;7.40;6.00;;;;;;;31.71;37.53;99167.16;104964;1271;61390;-70
2022/07/21 10:30:55;;;;;;;8.50;6.70;;;;;;;31.78;37.31;99166.74;105261;1268;61339;-71
2022/07/21 10:33:44;;;;;;;8.60;5.70;;;;;;;31.83;36.88;99170.05;105274;1271;76784;-69
2022/07/21 10:36:34;;;;;;;7.40;5.30;;;;;;;31.85;36.35;99166.38;105237;1271;69277;-70
2022/07/21 10:39:06;;;;;;;7.80;5.30;;;;;;;31.94;36.70;99163.36;104631;1277;73778;-70
2022/07/21 10:41:41;;;;;;;6.80;5.60;;;;;;;32.07;36.37;99167.23;104660;1277;61560;-72
2022/07/21 10:44:28;;;;;;;9.20;5.90;;;;;;;32.06;36.20;99165.25;104523;1277;61210;-70
2022/07/21 10:47:12;;;;;;;8.20;5.10;;;;;;;32.11;37.12;99166.01;104657;1277;76348;-70
2022/07/21 10:49:42;;;;;;;6.50;4.60;;;;;;;32.24;36.12;99164.14;104611;1277;69309;-70
2022/07/21 10:52:45;;;;;;;6.40;5.30;;;;;;;32.29;35.64;99166.76;104584;1277;73117;-71
2022/07/21 10:55:36;;;;;;;6.90;5.50;;;;;;;32.36;35.35;99166.20;104615;1277;61296;-69
2022/07/21 10:58:18;;;;;;;7.70;4.60;;;;;;;32.48;35.12;99165.40;104532;1277;62018;-70
2022/07/21 11:00:57;;;;;;;7.90;4.70;;;;;;;32.53;34.94;99164.13;104622;1277;75529;-70
2022/07/21 11:03:33;;;;;;;7.30;5.00;;;;;;;32.61;34.54;99163.07;104656;1277;69441;-69
2022/07/21 11:06:24;;;;;;;5.00;4.50;;;;;;;32.55;33.74;99160.52;104620;1277;73259;-70
2022/07/21 11:09:04;;;;;;;6.50;4.60;;;;;;;32.63;33.69;99163.69;104654;1277;61294;-70
2022/07/21 11:11:34;;;;;;;5.80;4.70;;;;;;;32.59;33.49;99163.43;104637;1277;61486;-71
2022/07/21 11:14:10;;;;;;;4.50;4.10;;;;;;;32.56;33.74;99159.19;104727;1277;76644;-71
2022/07/21 11:16:44;;;;;;;4.70;4.20;;;;;;;32.59;33.02;99159.08;104944;1268;70393;-70
2022/07/21 11:19:53;;;;;;;12.90;5.60;;;;;;;32.67;33.49;99160.13;105248;1269;73421;-70
2022/07/21 11:22:25;;;;;;;5.60;4.40;;;;;;;32.79;32.50;99159.84;104971;1268;61515;-70
2022/07/21 11:25:04;;;;;;;5.10;4.30;;;;;;;32.87;32.30;99159.33;105235;1269;61344;-70
2022/07/21 11:27:31;;;;;;;;;;;;;;;32.84;31.45;99156.30;105211;1268;76121;-70